sensor_id;sensor_type;location;lat;lon;timestamp;P1;durP1;ratioP1;P2;durP2;ratioP2
81231;SDS011;70703;55.652;37.710;2023-11-21T00:00:08;11.75;;;7.57;;
81231;SDS011;70703;55.652;37.710;2023-11-21T00:00:25;12.68;;;7.88;;
81231;SDS011;70703;55.652;37.710;2023-11-21T00:00:38;13.38;;;7.70;;
81231;SDS011;70703;55.652;37.710;2023-11-21T00:00:50;13.15;;;7.53;;
81231;SDS011;70703;55.652;37.710;2023-11-21T00:01:02;13.77;;;7.57;;
81231;SDS011;70703;55.652;37.710;2023-11-21T00:01:15;13.93;;;7.85;;
81231;SDS011;70703;55.652;37.710;2023-11-21T00:01:27;13.02;;;7.60;;
81231;SDS011;70703;55.652;37.710;2023-11-21T00:01:41;13.55;;;7.72;;
81231;SDS011;70703;55.652;37.710;2023-11-21T00:01:52;13.48;;;7.90;;
81231;SDS011;70703;55.652;37.710;2023-11-21T00:02:04;12.48;;;7.82;;
81231;SDS011;70703;55.652;37.710;2023-11-21T00:02:17;12.32;;;7.75;;
81231;SDS011;70703;55.652;37.710;2023-11-21T00:02:29;12.50;;;7.85;;
81231;SDS011;70703;55.652;37.710;2023-11-21T00:02:41;12.80;;;7.90;;
81231;SDS011;70703;55.652;37.710;2023-11-21T00:02:58;13.10;;;7.90;;
81231;SDS011;70703;55.652;37.710;2023-11-21T00:03:10;13.07;;;7.60;;
81231;SDS011;70703;55.652;37.710;2023-11-21T00:03:26;14.77;;;7.68;;
81231;SDS011;70703;55.652;37.710;2023-11-21T00:03:40;15.10;;;8.00;;
81231;SDS011;70703;55.652;37.710;2023-11-21T00:03:52;13.63;;;7.93;;
81231;SDS011;70703;55.652;37.710;2023-11-21T00:04:06;11.98;;;7.63;;
81231;SDS011;70703;55.652;37.710;2023-11-21T00:04:18;12.93;;;8.15;;
81231;SDS011;70703;55.652;37.710;2023-11-21T00:04:30;13.68;;;8.45;;
81231;SDS011;70703;55.652;37.710;2023-11-21T00:04:42;14.57;;;8.23;;
81231;SDS011;70703;55.652;37.710;2023-11-21T00:04:55;13.68;;;7.88;;
81231;SDS011;70703;55.652;37.710;2023-11-21T00:05:06;14.75;;;7.90;;
81231;SDS011;70703;55.652;37.710;2023-11-21T00:05:18;13.80;;;7.57;;
81231;SDS011;70703;55.652;37.710;2023-11-21T00:05:31;14.20;;;7.70;;
81231;SDS011;70703;55.652;37.710;2023-11-21T00:05:44;13.52;;;7.55;;
81231;SDS011;70703;55.652;37.710;2023-11-21T00:05:56;14.05;;;7.88;;
81231;SDS011;70703;55.652;37.710;2023-11-21T00:06:08;13.75;;;7.88;;
81231;SDS011;70703;55.652;37.710;2023-11-21T00:06:20;13.90;;;8.00;;
81231;SDS011;70703;55.652;37.710;2023-11-21T00:06:32;12.80;;;7.80;;
81231;SDS011;70703;55.652;37.710;2023-11-21T00:06:44;12.68;;;7.68;;
81231;SDS011;70703;55.652;37.710;2023-11-21T00:07:00;13.35;;;8.00;;
81231;SDS011;70703;55.652;37.710;2023-11-21T00:07:13;13.00;;;8.00;;
81231;SDS011;70703;55.652;37.710;2023-11-21T00:07:25;13.35;;;7.95;;
81231;SDS011;70703;55.652;37.710;2023-11-21T00:07:38;15.10;;;8.25;;
81231;SDS011;70703;55.652;37.710;2023-11-21T00:07:51;16.95;;;8.85;;
81231;SDS011;70703;55.652;37.710;2023-11-21T00:08:03;15.05;;;8.90;;
81231;SDS011;70703;55.652;37.710;2023-11-21T00:08:16;15.65;;;9.07;;
81231;SDS011;70703;55.652;37.710;2023-11-21T00:08:27;16.55;;;9.20;;
81231;SDS011;70703;55.652;37.710;2023-11-21T00:08:40;16.23;;;9.50;;
81231;SDS011;70703;55.652;37.710;2023-11-21T00:08:52;15.70;;;9.30;;
81231;SDS011;70703;55.652;37.710;2023-11-21T00:09:04;14.65;;;8.63;;
81231;SDS011;70703;55.652;37.710;2023-11-21T00:09:16;13.63;;;8.05;;
81231;SDS011;70703;55.652;37.710;2023-11-21T00:09:30;13.32;;;7.93;;
81231;SDS011;70703;55.652;37.710;2023-11-21T00:09:42;14.25;;;8.05;;
81231;SDS011;70703;55.652;37.710;2023-11-21T00:09:53;13.96;;;7.94;;
81231;SDS011;70703;55.652;37.710;2023-11-21T00:10:08;14.15;;;8.02;;
81231;SDS011;70703;55.652;37.710;2023-11-21T00:10:21;13.85;;;8.30;;
81231;SDS011;70703;55.652;37.710;2023-11-21T00:10:34;13.38;;;8.18;;
81231;SDS011;70703;55.652;37.710;2023-11-21T00:10:45;12.77;;;8.10;;
81231;SDS011;70703;55.652;37.710;2023-11-21T00:10:57;12.18;;;7.78;;
81231;SDS011;70703;55.652;37.710;2023-11-21T00:11:11;13.55;;;7.72;;
81231;SDS011;70703;55.652;37.710;2023-11-21T00:11:24;14.35;;;7.60;;
81231;SDS011;70703;55.652;37.710;2023-11-21T00:11:36;13.65;;;7.57;;
81231;SDS011;70703;55.652;37.710;2023-11-21T00:11:49;13.00;;;7.70;;
81231;SDS011;70703;55.652;37.710;2023-11-21T00:12:02;14.13;;;7.97;;
81231;SDS011;70703;55.652;37.710;2023-11-21T00:12:15;14.40;;;7.95;;
81231;SDS011;70703;55.652;37.710;2023-11-21T00:12:27;14.20;;;7.80;;
81231;SDS011;70703;55.652;37.710;2023-11-21T00:12:39;14.73;;;7.60;;
81231;SDS011;70703;55.652;37.710;2023-11-21T00:12:52;15.02;;;7.55;;
81231;SDS011;70703;55.652;37.710;2023-11-21T00:13:06;14.23;;;7.78;;
81231;SDS011;70703;55.652;37.710;2023-11-21T00:13:19;13.70;;;7.93;;
81231;SDS011;70703;55.652;37.710;2023-11-21T00:13:31;14.00;;;8.13;;
81231;SDS011;70703;55.652;37.710;2023-11-21T00:13:43;14.73;;;8.55;;
81231;SDS011;70703;55.652;37.710;2023-11-21T00:13:56;14.02;;;8.23;;
81231;SDS011;70703;55.652;37.710;2023-11-21T00:14:08;14.65;;;7.72;;
81231;SDS011;70703;55.652;37.710;2023-11-21T00:14:21;14.75;;;7.65;;
81231;SDS011;70703;55.652;37.710;2023-11-21T00:14:34;13.98;;;7.93;;
81231;SDS011;70703;55.652;37.710;2023-11-21T00:14:46;13.07;;;7.93;;
81231;SDS011;70703;55.652;37.710;2023-11-21T00:14:59;12.68;;;7.90;;
81231;SDS011;70703;55.652;37.710;2023-11-21T00:15:14;14.13;;;7.75;;
81231;SDS011;70703;55.652;37.710;2023-11-21T00:15:26;13.80;;;7.65;;
81231;SDS011;70703;55.652;37.710;2023-11-21T00:15:38;12.55;;;7.65;;
81231;SDS011;70703;55.652;37.710;2023-11-21T00:15:50;13.27;;;7.88;;
81231;SDS011;70703;55.652;37.710;2023-11-21T00:16:04;13.77;;;8.00;;
81231;SDS011;70703;55.652;37.710;2023-11-21T00:16:18;15.48;;;7.97;;
81231;SDS011;70703;55.652;37.710;2023-11-21T00:16:31;14.68;;;7.63;;
81231;SDS011;70703;55.652;37.710;2023-11-21T00:16:43;13.32;;;7.40;;
81231;SDS011;70703;55.652;37.710;2023-11-21T00:16:56;14.52;;;7.68;;
81231;SDS011;70703;55.652;37.710;2023-11-21T00:17:09;17.13;;;7.80;;
81231;SDS011;70703;55.652;37.710;2023-11-21T00:17:21;18.80;;;7.97;;
81231;SDS011;70703;55.652;37.710;2023-11-21T00:17:34;13.77;;;7.70;;
81231;SDS011;70703;55.652;37.710;2023-11-21T00:17:47;12.27;;;7.47;;
81231;SDS011;70703;55.652;37.710;2023-11-21T00:18:00;13.15;;;7.60;;
81231;SDS011;70703;55.652;37.710;2023-11-21T00:18:11;13.35;;;7.80;;
81231;SDS011;70703;55.652;37.710;2023-11-21T00:18:25;12.18;;;7.53;;
81231;SDS011;70703;55.652;37.710;2023-11-21T00:18:39;12.00;;;7.25;;
81231;SDS011;70703;55.652;37.710;2023-11-21T00:18:51;13.50;;;7.57;;
81231;SDS011;70703;55.652;37.710;2023-11-21T00:19:02;14.38;;;7.80;;
81231;SDS011;70703;55.652;37.710;2023-11-21T00:19:15;14.90;;;7.80;;
81231;SDS011;70703;55.652;37.710;2023-11-21T00:19:28;14.48;;;7.97;;
81231;SDS011;70703;55.652;37.710;2023-11-21T00:19:40;12.30;;;7.80;;
81231;SDS011;70703;55.652;37.710;2023-11-21T00:19:54;12.27;;;8.10;;
81231;SDS011;70703;55.652;37.710;2023-11-21T00:20:07;13.20;;;8.07;;
81231;SDS011;70703;55.652;37.710;2023-11-21T00:20:23;14.98;;;7.60;;
81231;SDS011;70703;55.652;37.710;2023-11-21T00:20:36;14.18;;;7.43;;
81231;SDS011;70703;55.652;37.710;2023-11-21T00:20:49;13.07;;;7.78;;
81231;SDS011;70703;55.652;37.710;2023-11-21T00:21:01;14.23;;;7.95;;
81231;SDS011;70703;55.652;37.710;2023-11-21T00:21:15;13.45;;;8.00;;
81231;SDS011;70703;55.652;37.710;2023-11-21T00:21:26;12.82;;;8.00;;
81231;SDS011;70703;55.652;37.710;2023-11-21T00:21:38;12.43;;;8.10;;
81231;SDS011;70703;55.652;37.710;2023-11-21T00:21:51;14.02;;;8.27;;
81231;SDS011;70703;55.652;37.710;2023-11-21T00:22:03;14.35;;;8.25;;
81231;SDS011;70703;55.652;37.710;2023-11-21T00:22:15;13.55;;;8.18;;
81231;SDS011;70703;55.652;37.710;2023-11-21T00:22:28;15.05;;;8.27;;
81231;SDS011;70703;55.652;37.710;2023-11-21T00:22:40;15.75;;;8.55;;
81231;SDS011;70703;55.652;37.710;2023-11-21T00:22:53;14.80;;;8.45;;
81231;SDS011;70703;55.652;37.710;2023-11-21T00:23:06;13.68;;;8.18;;
81231;SDS011;70703;55.652;37.710;2023-11-21T00:23:18;13.27;;;7.82;;
81231;SDS011;70703;55.652;37.710;2023-11-21T00:23:31;13.28;;;7.96;;
81231;SDS011;70703;55.652;37.710;2023-11-21T00:23:43;13.15;;;8.10;;
81231;SDS011;70703;55.652;37.710;2023-11-21T00:23:55;13.23;;;8.10;;
81231;SDS011;70703;55.652;37.710;2023-11-21T00:24:07;13.82;;;7.90;;
81231;SDS011;70703;55.652;37.710;2023-11-21T00:24:21;14.10;;;7.88;;
81231;SDS011;70703;55.652;37.710;2023-11-21T00:24:36;14.55;;;8.05;;
81231;SDS011;70703;55.652;37.710;2023-11-21T00:24:49;15.13;;;8.20;;
81231;SDS011;70703;55.652;37.710;2023-11-21T00:25:01;13.35;;;7.82;;
81231;SDS011;70703;55.652;37.710;2023-11-21T00:25:16;12.32;;;7.40;;
81231;SDS011;70703;55.652;37.710;2023-11-21T00:25:29;13.95;;;7.70;;
81231;SDS011;70703;55.652;37.710;2023-11-21T00:25:41;14.07;;;7.68;;
81231;SDS011;70703;55.652;37.710;2023-11-21T00:25:55;14.02;;;7.53;;
81231;SDS011;70703;55.652;37.710;2023-11-21T00:26:08;14.75;;;7.50;;
81231;SDS011;70703;55.652;37.710;2023-11-21T00:26:20;13.93;;;7.50;;
81231;SDS011;70703;55.652;37.710;2023-11-21T00:26:41;14.38;;;7.55;;
81231;SDS011;70703;55.652;37.710;2023-11-21T00:26:53;14.70;;;7.57;;
81231;SDS011;70703;55.652;37.710;2023-11-21T00:27:05;16.70;;;7.75;;
81231;SDS011;70703;55.652;37.710;2023-11-21T00:27:18;16.95;;;7.93;;
81231;SDS011;70703;55.652;37.710;2023-11-21T00:27:31;15.25;;;8.07;;
81231;SDS011;70703;55.652;37.710;2023-11-21T00:27:43;14.77;;;8.00;;
81231;SDS011;70703;55.652;37.710;2023-11-21T00:27:55;12.30;;;7.60;;
81231;SDS011;70703;55.652;37.710;2023-11-21T00:28:08;12.10;;;7.38;;
81231;SDS011;70703;55.652;37.710;2023-11-21T00:28:20;11.98;;;7.45;;
81231;SDS011;70703;55.652;37.710;2023-11-21T00:28:33;13.93;;;7.65;;
81231;SDS011;70703;55.652;37.710;2023-11-21T00:28:46;14.45;;;7.80;;
81231;SDS011;70703;55.652;37.710;2023-11-21T00:29:01;13.35;;;7.50;;
81231;SDS011;70703;55.652;37.710;2023-11-21T00:29:14;13.88;;;7.55;;
81231;SDS011;70703;55.652;37.710;2023-11-21T00:29:28;14.27;;;8.25;;
81231;SDS011;70703;55.652;37.710;2023-11-21T00:29:40;14.70;;;8.15;;
81231;SDS011;70703;55.652;37.710;2023-11-21T00:29:52;14.10;;;7.65;;
81231;SDS011;70703;55.652;37.710;2023-11-21T00:30:05;14.70;;;7.57;;
81231;SDS011;70703;55.652;37.710;2023-11-21T00:30:20;14.98;;;7.60;;
81231;SDS011;70703;55.652;37.710;2023-11-21T00:30:32;13.93;;;7.40;;
81231;SDS011;70703;55.652;37.710;2023-11-21T00:30:44;14.57;;;7.43;;
81231;SDS011;70703;55.652;37.710;2023-11-21T00:30:57;13.80;;;7.65;;
81231;SDS011;70703;55.652;37.710;2023-11-21T00:31:09;13.40;;;7.53;;
81231;SDS011;70703;55.652;37.710;2023-11-21T00:31:21;11.63;;;7.07;;
81231;SDS011;70703;55.652;37.710;2023-11-21T00:31:34;11.90;;;7.22;;
81231;SDS011;70703;55.652;37.710;2023-11-21T00:31:46;13.43;;;7.63;;
81231;SDS011;70703;55.652;37.710;2023-11-21T00:31:59;14.65;;;7.85;;
81231;SDS011;70703;55.652;37.710;2023-11-21T00:32:11;14.13;;;8.00;;
81231;SDS011;70703;55.652;37.710;2023-11-21T00:32:24;14.85;;;8.02;;
81231;SDS011;70703;55.652;37.710;2023-11-21T00:32:37;13.15;;;7.75;;
81231;SDS011;70703;55.652;37.710;2023-11-21T00:32:49;11.88;;;7.38;;
81231;SDS011;70703;55.652;37.710;2023-11-21T00:33:02;13.00;;;7.57;;
81231;SDS011;70703;55.652;37.710;2023-11-21T00:33:15;14.30;;;7.85;;
81231;SDS011;70703;55.652;37.710;2023-11-21T00:33:28;17.30;;;8.80;;
81231;SDS011;70703;55.652;37.710;2023-11-21T00:33:40;17.98;;;9.38;;
81231;SDS011;70703;55.652;37.710;2023-11-21T00:33:52;16.60;;;9.30;;
81231;SDS011;70703;55.652;37.710;2023-11-21T00:34:07;15.10;;;8.70;;
81231;SDS011;70703;55.652;37.710;2023-11-21T00:34:19;15.40;;;8.32;;
81231;SDS011;70703;55.652;37.710;2023-11-21T00:34:32;16.02;;;8.20;;
81231;SDS011;70703;55.652;37.710;2023-11-21T00:34:45;15.60;;;8.40;;
81231;SDS011;70703;55.652;37.710;2023-11-21T00:34:56;13.18;;;8.18;;
81231;SDS011;70703;55.652;37.710;2023-11-21T00:35:08;13.25;;;8.20;;
81231;SDS011;70703;55.652;37.710;2023-11-21T00:35:21;13.48;;;8.00;;
81231;SDS011;70703;55.652;37.710;2023-11-21T00:35:34;14.38;;;7.85;;
81231;SDS011;70703;55.652;37.710;2023-11-21T00:35:46;15.38;;;7.80;;
81231;SDS011;70703;55.652;37.710;2023-11-21T00:35:58;15.65;;;8.15;;
81231;SDS011;70703;55.652;37.710;2023-11-21T00:36:11;15.73;;;7.85;;
81231;SDS011;70703;55.652;37.710;2023-11-21T00:36:24;14.52;;;7.45;;
81231;SDS011;70703;55.652;37.710;2023-11-21T00:36:39;14.75;;;7.60;;
81231;SDS011;70703;55.652;37.710;2023-11-21T00:36:51;14.77;;;7.80;;
81231;SDS011;70703;55.652;37.710;2023-11-21T00:37:05;13.10;;;7.55;;
81231;SDS011;70703;55.652;37.710;2023-11-21T00:37:16;12.07;;;7.30;;
81231;SDS011;70703;55.652;37.710;2023-11-21T00:37:27;12.38;;;7.68;;
81231;SDS011;70703;55.652;37.710;2023-11-21T00:37:39;15.57;;;7.72;;
81231;SDS011;70703;55.652;37.710;2023-11-21T00:37:51;20.95;;;7.80;;
81231;SDS011;70703;55.652;37.710;2023-11-21T00:38:04;25.90;;;7.68;;
81231;SDS011;70703;55.652;37.710;2023-11-21T00:38:16;24.48;;;7.60;;
81231;SDS011;70703;55.652;37.710;2023-11-21T00:38:31;20.55;;;7.47;;
81231;SDS011;70703;55.652;37.710;2023-11-21T00:38:42;21.02;;;7.75;;
81231;SDS011;70703;55.652;37.710;2023-11-21T00:38:54;19.92;;;7.68;;
81231;SDS011;70703;55.652;37.710;2023-11-21T00:39:07;18.90;;;7.50;;
81231;SDS011;70703;55.652;37.710;2023-11-21T00:39:19;15.38;;;7.05;;
81231;SDS011;70703;55.652;37.710;2023-11-21T00:39:31;14.10;;;7.05;;
81231;SDS011;70703;55.652;37.710;2023-11-21T00:39:45;12.60;;;7.05;;
81231;SDS011;70703;55.652;37.710;2023-11-21T00:39:56;12.80;;;7.00;;
81231;SDS011;70703;55.652;37.710;2023-11-21T00:40:09;12.60;;;7.05;;
81231;SDS011;70703;55.652;37.710;2023-11-21T00:40:26;13.48;;;7.20;;
81231;SDS011;70703;55.652;37.710;2023-11-21T00:40:39;16.45;;;7.45;;
81231;SDS011;70703;55.652;37.710;2023-11-21T00:40:51;19.17;;;8.10;;
81231;SDS011;70703;55.652;37.710;2023-11-21T00:41:06;17.48;;;8.02;;
81231;SDS011;70703;55.652;37.710;2023-11-21T00:41:18;14.10;;;7.35;;
81231;SDS011;70703;55.652;37.710;2023-11-21T00:41:30;13.75;;;7.35;;
81231;SDS011;70703;55.652;37.710;2023-11-21T00:41:42;12.73;;;7.38;;
81231;SDS011;70703;55.652;37.710;2023-11-21T00:41:55;12.77;;;7.20;;
81231;SDS011;70703;55.652;37.710;2023-11-21T00:42:09;13.75;;;7.30;;
81231;SDS011;70703;55.652;37.710;2023-11-21T00:42:21;15.30;;;7.50;;
81231;SDS011;70703;55.652;37.710;2023-11-21T00:42:33;15.05;;;7.57;;
81231;SDS011;70703;55.652;37.710;2023-11-21T00:42:45;14.52;;;7.57;;
81231;SDS011;70703;55.652;37.710;2023-11-21T00:42:58;14.06;;;7.56;;
81231;SDS011;70703;55.652;37.710;2023-11-21T00:43:09;14.43;;;7.55;;
81231;SDS011;70703;55.652;37.710;2023-11-21T00:43:21;15.10;;;7.78;;
81231;SDS011;70703;55.652;37.710;2023-11-21T00:43:34;14.60;;;7.78;;
81231;SDS011;70703;55.652;37.710;2023-11-21T00:43:47;13.80;;;7.50;;
81231;SDS011;70703;55.652;37.710;2023-11-21T00:44:00;13.25;;;7.45;;
81231;SDS011;70703;55.652;37.710;2023-11-21T00:44:12;14.48;;;7.47;;
81231;SDS011;70703;55.652;37.710;2023-11-21T00:44:23;14.70;;;7.50;;
81231;SDS011;70703;55.652;37.710;2023-11-21T00:44:37;14.13;;;7.47;;
81231;SDS011;70703;55.652;37.710;2023-11-21T00:44:49;14.30;;;7.57;;
81231;SDS011;70703;55.652;37.710;2023-11-21T00:45:01;14.95;;;7.70;;
81231;SDS011;70703;55.652;37.710;2023-11-21T00:45:15;15.68;;;7.63;;
81231;SDS011;70703;55.652;37.710;2023-11-21T00:45:27;15.70;;;7.47;;
81231;SDS011;70703;55.652;37.710;2023-11-21T00:45:39;13.07;;;7.45;;
81231;SDS011;70703;55.652;37.710;2023-11-21T00:45:51;14.57;;;7.38;;
81231;SDS011;70703;55.652;37.710;2023-11-21T00:46:05;14.82;;;7.40;;
81231;SDS011;70703;55.652;37.710;2023-11-21T00:46:18;13.98;;;7.43;;
81231;SDS011;70703;55.652;37.710;2023-11-21T00:46:31;15.35;;;7.28;;
81231;SDS011;70703;55.652;37.710;2023-11-21T00:46:42;14.48;;;7.13;;
81231;SDS011;70703;55.652;37.710;2023-11-21T00:46:54;12.93;;;7.07;;
81231;SDS011;70703;55.652;37.710;2023-11-21T00:47:06;12.06;;;6.84;;
81231;SDS011;70703;55.652;37.710;2023-11-21T00:47:18;12.07;;;6.68;;
81231;SDS011;70703;55.652;37.710;2023-11-21T00:47:32;13.38;;;6.72;;
81231;SDS011;70703;55.652;37.710;2023-11-21T00:47:45;13.10;;;6.95;;
81231;SDS011;70703;55.652;37.710;2023-11-21T00:47:57;14.25;;;7.25;;
81231;SDS011;70703;55.652;37.710;2023-11-21T00:48:12;17.70;;;7.47;;
81231;SDS011;70703;55.652;37.710;2023-11-21T00:48:25;18.23;;;7.60;;
81231;SDS011;70703;55.652;37.710;2023-11-21T00:48:37;14.52;;;7.50;;
81231;SDS011;70703;55.652;37.710;2023-11-21T00:48:50;14.23;;;7.35;;
81231;SDS011;70703;55.652;37.710;2023-11-21T00:49:02;14.63;;;7.35;;
81231;SDS011;70703;55.652;37.710;2023-11-21T00:49:15;13.50;;;7.07;;
81231;SDS011;70703;55.652;37.710;2023-11-21T00:49:27;13.90;;;6.97;;
81231;SDS011;70703;55.652;37.710;2023-11-21T00:49:39;15.18;;;7.18;;
81231;SDS011;70703;55.652;37.710;2023-11-21T00:49:53;17.50;;;7.13;;
81231;SDS011;70703;55.652;37.710;2023-11-21T00:50:06;15.00;;;7.25;;
81231;SDS011;70703;55.652;37.710;2023-11-21T00:50:21;13.30;;;7.20;;
81231;SDS011;70703;55.652;37.710;2023-11-21T00:50:33;13.02;;;7.20;;
81231;SDS011;70703;55.652;37.710;2023-11-21T00:50:44;13.88;;;7.35;;
81231;SDS011;70703;55.652;37.710;2023-11-21T00:50:56;14.95;;;7.68;;
81231;SDS011;70703;55.652;37.710;2023-11-21T00:51:08;15.38;;;7.40;;
81231;SDS011;70703;55.652;37.710;2023-11-21T00:51:20;13.38;;;7.03;;
81231;SDS011;70703;55.652;37.710;2023-11-21T00:51:31;14.30;;;6.82;;
81231;SDS011;70703;55.652;37.710;2023-11-21T00:51:43;15.68;;;6.82;;
81231;SDS011;70703;55.652;37.710;2023-11-21T00:51:57;16.02;;;7.10;;
81231;SDS011;70703;55.652;37.710;2023-11-21T00:52:10;16.25;;;7.38;;
81231;SDS011;70703;55.652;37.710;2023-11-21T00:52:22;15.63;;;7.25;;
81231;SDS011;70703;55.652;37.710;2023-11-21T00:52:33;13.88;;;7.10;;
81231;SDS011;70703;55.652;37.710;2023-11-21T00:52:47;13.30;;;6.98;;
81231;SDS011;70703;55.652;37.710;2023-11-21T00:52:59;11.50;;;6.90;;
81231;SDS011;70703;55.652;37.710;2023-11-21T00:53:12;11.70;;;6.85;;
81231;SDS011;70703;55.652;37.710;2023-11-21T00:53:25;12.38;;;7.30;;
81231;SDS011;70703;55.652;37.710;2023-11-21T00:53:39;14.60;;;7.47;;
81231;SDS011;70703;55.652;37.710;2023-11-21T00:53:51;14.77;;;7.35;;
81231;SDS011;70703;55.652;37.710;2023-11-21T00:54:04;13.90;;;7.43;;
81231;SDS011;70703;55.652;37.710;2023-11-21T00:54:17;12.63;;;7.10;;
81231;SDS011;70703;55.652;37.710;2023-11-21T00:54:29;10.88;;;6.82;;
81231;SDS011;70703;55.652;37.710;2023-11-21T00:54:41;11.40;;;7.00;;
81231;SDS011;70703;55.652;37.710;2023-11-21T00:54:52;11.70;;;7.00;;
81231;SDS011;70703;55.652;37.710;2023-11-21T00:55:05;12.68;;;6.93;;
81231;SDS011;70703;55.652;37.710;2023-11-21T00:55:18;12.68;;;7.03;;
81231;SDS011;70703;55.652;37.710;2023-11-21T00:55:31;12.23;;;7.10;;
81231;SDS011;70703;55.652;37.710;2023-11-21T00:55:44;13.30;;;7.60;;
81231;SDS011;70703;55.652;37.710;2023-11-21T00:55:56;13.78;;;7.50;;
81231;SDS011;70703;55.652;37.710;2023-11-21T00:56:08;13.52;;;7.25;;
81231;SDS011;70703;55.652;37.710;2023-11-21T00:56:21;13.27;;;7.20;;
81231;SDS011;70703;55.652;37.710;2023-11-21T00:56:32;12.25;;;7.20;;
81231;SDS011;70703;55.652;37.710;2023-11-21T00:56:45;12.55;;;7.28;;
81231;SDS011;70703;55.652;37.710;2023-11-21T00:56:58;13.85;;;7.00;;
81231;SDS011;70703;55.652;37.710;2023-11-21T00:57:09;14.98;;;7.13;;
81231;SDS011;70703;55.652;37.710;2023-11-21T00:57:22;15.95;;;7.28;;
81231;SDS011;70703;55.652;37.710;2023-11-21T00:57:35;15.70;;;7.40;;
81231;SDS011;70703;55.652;37.710;2023-11-21T00:57:49;12.98;;;6.82;;
81231;SDS011;70703;55.652;37.710;2023-11-21T00:58:01;12.35;;;7.00;;
81231;SDS011;70703;55.652;37.710;2023-11-21T00:58:14;12.93;;;7.57;;
81231;SDS011;70703;55.652;37.710;2023-11-21T00:58:26;12.50;;;7.47;;
81231;SDS011;70703;55.652;37.710;2023-11-21T00:58:38;11.77;;;7.25;;
81231;SDS011;70703;55.652;37.710;2023-11-21T00:58:50;11.80;;;7.10;;
81231;SDS011;70703;55.652;37.710;2023-11-21T00:59:03;12.50;;;7.00;;
81231;SDS011;70703;55.652;37.710;2023-11-21T00:59:16;11.57;;;6.70;;
81231;SDS011;70703;55.652;37.710;2023-11-21T00:59:28;10.93;;;6.85;;
81231;SDS011;70703;55.652;37.710;2023-11-21T00:59:41;14.13;;;7.25;;
81231;SDS011;70703;55.652;37.710;2023-11-21T00:59:53;16.80;;;7.60;;
81231;SDS011;70703;55.652;37.710;2023-11-21T01:00:07;16.45;;;7.47;;
81231;SDS011;70703;55.652;37.710;2023-11-21T01:00:24;13.13;;;7.13;;
81231;SDS011;70703;55.652;37.710;2023-11-21T01:00:36;13.48;;;7.30;;
81231;SDS011;70703;55.652;37.710;2023-11-21T01:00:50;13.27;;;7.40;;
81231;SDS011;70703;55.652;37.710;2023-11-21T01:01:01;12.63;;;7.07;;
81231;SDS011;70703;55.652;37.710;2023-11-21T01:01:14;12.50;;;7.07;;
81231;SDS011;70703;55.652;37.710;2023-11-21T01:01:25;14.05;;;7.50;;
81231;SDS011;70703;55.652;37.710;2023-11-21T01:01:36;15.13;;;7.72;;
81231;SDS011;70703;55.652;37.710;2023-11-21T01:01:51;13.70;;;7.38;;
81231;SDS011;70703;55.652;37.710;2023-11-21T01:02:04;12.75;;;7.07;;
81231;SDS011;70703;55.652;37.710;2023-11-21T01:02:17;13.75;;;6.97;;
81231;SDS011;70703;55.652;37.710;2023-11-21T01:02:29;13.90;;;7.28;;
81231;SDS011;70703;55.652;37.710;2023-11-21T01:02:41;12.70;;;7.28;;
81231;SDS011;70703;55.652;37.710;2023-11-21T01:02:54;11.55;;;7.25;;
81231;SDS011;70703;55.652;37.710;2023-11-21T01:03:06;11.30;;;7.07;;
81231;SDS011;70703;55.652;37.710;2023-11-21T01:03:21;12.60;;;7.10;;
81231;SDS011;70703;55.652;37.710;2023-11-21T01:03:34;13.05;;;7.03;;
81231;SDS011;70703;55.652;37.710;2023-11-21T01:03:45;11.98;;;6.88;;
81231;SDS011;70703;55.652;37.710;2023-11-21T01:03:58;12.18;;;7.05;;
81231;SDS011;70703;55.652;37.710;2023-11-21T01:04:11;13.60;;;7.10;;
81231;SDS011;70703;55.652;37.710;2023-11-21T01:04:23;14.45;;;7.20;;
81231;SDS011;70703;55.652;37.710;2023-11-21T01:04:35;14.80;;;7.28;;
81231;SDS011;70703;55.652;37.710;2023-11-21T01:04:47;13.23;;;7.10;;
81231;SDS011;70703;55.652;37.710;2023-11-21T01:04:59;12.00;;;6.88;;
81231;SDS011;70703;55.652;37.710;2023-11-21T01:05:10;11.43;;;6.80;;
81231;SDS011;70703;55.652;37.710;2023-11-21T01:05:24;12.52;;;7.20;;
81231;SDS011;70703;55.652;37.710;2023-11-21T01:05:36;14.07;;;7.38;;
81231;SDS011;70703;55.652;37.710;2023-11-21T01:05:49;14.05;;;7.18;;
81231;SDS011;70703;55.652;37.710;2023-11-21T01:06:02;15.68;;;7.50;;
81231;SDS011;70703;55.652;37.710;2023-11-21T01:06:17;15.27;;;7.40;;
81231;SDS011;70703;55.652;37.710;2023-11-21T01:06:30;14.95;;;6.97;;
81231;SDS011;70703;55.652;37.710;2023-11-21T01:06:42;14.32;;;7.15;;
81231;SDS011;70703;55.652;37.710;2023-11-21T01:06:54;14.85;;;7.05;;
81231;SDS011;70703;55.652;37.710;2023-11-21T01:07:05;15.73;;;7.30;;
81231;SDS011;70703;55.652;37.710;2023-11-21T01:07:18;14.30;;;7.07;;
81231;SDS011;70703;55.652;37.710;2023-11-21T01:07:31;12.70;;;7.18;;
81231;SDS011;70703;55.652;37.710;2023-11-21T01:07:44;13.13;;;7.28;;
81231;SDS011;70703;55.652;37.710;2023-11-21T01:07:55;13.63;;;7.57;;
81231;SDS011;70703;55.652;37.710;2023-11-21T01:08:07;13.00;;;7.28;;
81231;SDS011;70703;55.652;37.710;2023-11-21T01:08:19;12.32;;;7.18;;
81231;SDS011;70703;55.652;37.710;2023-11-21T01:08:33;12.60;;;7.15;;
81231;SDS011;70703;55.652;37.710;2023-11-21T01:08:46;13.13;;;7.32;;
81231;SDS011;70703;55.652;37.710;2023-11-21T01:08:58;14.57;;;7.50;;
81231;SDS011;70703;55.652;37.710;2023-11-21T01:09:10;13.23;;;7.28;;
81231;SDS011;70703;55.652;37.710;2023-11-21T01:09:23;14.35;;;7.32;;
81231;SDS011;70703;55.652;37.710;2023-11-21T01:09:36;13.30;;;7.22;;
81231;SDS011;70703;55.652;37.710;2023-11-21T01:09:48;13.43;;;7.45;;
81231;SDS011;70703;55.652;37.710;2023-11-21T01:10:00;14.27;;;7.65;;
81231;SDS011;70703;55.652;37.710;2023-11-21T01:10:14;13.98;;;7.40;;
81231;SDS011;70703;55.652;37.710;2023-11-21T01:10:27;12.93;;;7.38;;
81231;SDS011;70703;55.652;37.710;2023-11-21T01:10:40;12.05;;;7.40;;
81231;SDS011;70703;55.652;37.710;2023-11-21T01:10:52;12.80;;;7.35;;
81231;SDS011;70703;55.652;37.710;2023-11-21T01:11:05;12.70;;;7.38;;
81231;SDS011;70703;55.652;37.710;2023-11-21T01:11:19;12.45;;;7.40;;
81231;SDS011;70703;55.652;37.710;2023-11-21T01:11:32;13.65;;;7.47;;
81231;SDS011;70703;55.652;37.710;2023-11-21T01:11:47;13.35;;;7.28;;
81231;SDS011;70703;55.652;37.710;2023-11-21T01:11:58;11.93;;;6.93;;
81231;SDS011;70703;55.652;37.710;2023-11-21T01:12:10;11.43;;;6.70;;
81231;SDS011;70703;55.652;37.710;2023-11-21T01:12:24;11.73;;;6.97;;
81231;SDS011;70703;55.652;37.710;2023-11-21T01:12:37;11.98;;;7.18;;
81231;SDS011;70703;55.652;37.710;2023-11-21T01:12:50;12.85;;;7.35;;
81231;SDS011;70703;55.652;37.710;2023-11-21T01:13:02;12.25;;;7.32;;
81231;SDS011;70703;55.652;37.710;2023-11-21T01:13:15;12.70;;;7.30;;
81231;SDS011;70703;55.652;37.710;2023-11-21T01:13:27;12.35;;;7.25;;
81231;SDS011;70703;55.652;37.710;2023-11-21T01:13:40;11.90;;;7.20;;
81231;SDS011;70703;55.652;37.710;2023-11-21T01:13:53;12.70;;;7.32;;
81231;SDS011;70703;55.652;37.710;2023-11-21T01:14:05;14.30;;;7.35;;
81231;SDS011;70703;55.652;37.710;2023-11-21T01:14:17;13.15;;;7.18;;